Time;durP1;ratioP1;P1;durP2;ratioP2;P2;SDS_P1;SDS_P2;PMS_P1;PMS_P2;Temp;Humidity;BMP_temperature;BMP_pressure;BME280_temperature;BME280_humidity;BME280_pressure;Samples;Min_cycle;Max_cycle;Signal;HPM_P1;HPM_P2
2022/08/16 00:00:37;;;;;;;25.60;21.83;;;18.10;99.90;;;17.39;100.00;100285.06;4102791;29;20035;-78
2022/08/16 00:02:39;;;;;;;23.15;20.85;;;18.00;99.90;;;17.37;100.00;100297.81;4118876;28;20026;-77
2022/08/16 00:04:39;;;;;;;25.27;21.75;;;18.00;99.90;;;17.34;100.00;100282.22;4119104;28;20066;-77
2022/08/16 00:06:43;;;;;;;23.70;21.15;;;18.10;99.90;;;17.50;100.00;100311.91;4118780;28;20120;-77
2022/08/16 00:08:44;;;;;;;24.27;20.57;;;18.00;99.90;;;17.41;100.00;100297.16;4119103;28;20161;-77
2022/08/16 00:10:45;;;;;;;22.05;19.00;;;18.00;99.90;;;17.46;100.00;100308.03;4118959;28;20282;-77
2022/08/16 00:12:46;;;;;;;21.55;19.38;;;18.00;99.90;;;17.35;100.00;100284.69;4103079;28;20020;-77
2022/08/16 00:14:47;;;;;;;20.45;18.25;;;18.00;99.90;;;17.45;100.00;100295.72;4118984;28;20027;-78
2022/08/16 00:16:49;;;;;;;26.92;20.90;;;18.00;99.90;;;17.47;100.00;100309.66;4103429;28;20026;-77
2022/08/16 00:18:50;;;;;;;25.77;22.92;;;18.00;99.90;;;17.49;100.00;100309.47;4112753;28;20077;-77
2022/08/16 00:20:51;;;;;;;26.08;22.67;;;18.10;99.90;;;17.43;100.00;100316.47;4119954;28;20027;-77
2022/08/16 00:22:52;;;;;;;24.73;22.13;;;18.10;99.90;;;17.50;100.00;100306.56;4102752;28;20035;-77
2022/08/16 00:24:53;;;;;;;26.55;22.23;;;18.10;99.90;;;17.45;100.00;100295.72;4118323;28;20394;-78
2022/08/16 00:26:55;;;;;;;24.58;21.85;;;18.10;99.90;;;17.51;100.00;100300.22;4134187;28;20457;-78
2022/08/16 00:28:56;;;;;;;25.67;22.98;;;18.10;99.90;;;17.54;100.00;100301.63;4134839;28;20046;-77
2022/08/16 00:30:57;;;;;;;25.75;22.88;;;18.10;99.90;;;17.43;100.00;100286.31;4134994;28;20030;-78
2022/08/16 00:32:59;;;;;;;28.70;22.95;;;18.10;99.90;;;17.54;100.00;100315.81;4134840;28;20030;-78
2022/08/16 00:35:00;;;;;;;24.38;21.13;;;18.10;99.90;;;17.40;100.00;100279.53;4134727;28;20058;-78
2022/08/16 00:37:02;;;;;;;22.67;18.98;;;18.10;99.90;;;17.39;100.00;100283.22;4134673;28;20030;-78
2022/08/16 00:39:03;;;;;;;22.73;20.48;;;18.10;99.90;;;17.40;100.00;100279.53;4118553;28;20027;-78
2022/08/16 00:41:06;;;;;;;23.58;20.88;;;18.10;99.90;;;17.46;100.00;100291.22;4134906;28;20069;-78
2022/08/16 00:43:20;;;;;;;24.23;21.73;;;18.10;99.90;;;17.54;100.00;100302.50;4135889;28;20081;-78
2022/08/16 00:46:08;;;;;;;28.08;23.98;;;18.10;99.90;;;17.54;100.00;100302.50;4134846;28;20110;-78
2022/08/16 00:48:14;;;;;;;24.55;21.90;;;18.10;99.90;;;17.47;100.00;100271.53;4130988;28;20050;-78
2022/08/16 00:50:17;;;;;;;23.98;21.58;;;18.10;99.90;;;17.53;100.00;100276.81;4134518;28;20042;-77
2022/08/16 00:52:18;;;;;;;22.45;20.35;;;18.10;99.90;;;17.53;100.00;100279.47;4118950;28;20026;-77
2022/08/16 00:54:26;;;;;;;28.05;22.92;;;18.10;99.90;;;17.49;100.00;100270.28;4136028;28;20110;-77
2022/08/16 00:56:32;;;;;;;27.75;23.38;;;18.10;99.90;;;17.42;100.00;100258.81;4119278;28;20054;-77
2022/08/16 00:58:39;;;;;;;31.83;24.45;;;18.10;99.90;;;17.57;100.00;100270.06;4137282;28;20019;-78
2022/08/16 01:00:40;;;;;;;27.50;24.35;;;18.10;99.90;;;17.55;100.00;100266.78;4154379;28;20045;-77
2022/08/16 01:02:41;;;;;;;29.95;24.95;;;18.10;99.90;;;17.57;100.00;100263.91;4138031;28;20037;-77
2022/08/16 01:04:42;;;;;;;27.33;24.52;;;18.20;99.90;;;17.62;100.00;100270.22;4138133;28;20034;-77
2022/08/16 01:06:43;;;;;;;28.98;24.48;;;18.20;99.90;;;17.52;100.00;100248.53;4137584;28;20555;-77
2022/08/16 01:08:47;;;;;;;30.38;26.27;;;18.20;99.90;;;17.53;100.00;100247.47;4137591;28;20034;-77
2022/08/16 01:10:48;;;;;;;;;;;18.20;99.90;;;17.53;100.00;100252.81;4122104;28;20030;-78
2022/08/16 01:12:49;;;;;;;28.65;23.67;;;18.20;99.90;;;17.62;100.00;100256.09;4138306;28;19937;-78
2022/08/16 01:14:56;;;;;;;28.45;24.73;;;18.30;99.90;;;17.57;100.00;100232.72;4137627;28;20109;-77
2022/08/16 01:16:58;;;;;;;29.35;24.02;;;18.30;99.90;;;17.73;100.00;100257.25;4137585;28;20034;-77
2022/08/16 01:19:22;;;;;;;33.53;25.15;;;18.30;99.90;;;17.83;100.00;100266.41;4134600;28;20039;-77
2022/08/16 01:21:50;;;;;;;29.27;23.15;;;18.30;99.90;;;17.82;100.00;100256.78;4122693;28;20027;-78
2022/08/16 01:23:52;;;;;;;33.90;24.33;;;18.40;99.90;;;17.80;100.00;100258.84;4122583;28;20078;-77
2022/08/16 01:25:54;;;;;;;36.90;26.80;;;18.40;99.90;;;17.79;100.00;100259.91;4128613;28;20030;-77
2022/08/16 01:27:59;;;;;;;31.95;26.50;;;18.40;99.90;;;17.67;100.00;100248.25;4121144;28;20035;-77
2022/08/16 01:30:16;;;;;;;30.45;23.73;;;18.40;99.90;;;17.58;100.00;100229.03;4138526;28;20105;-78
2022/08/16 01:32:17;;;;;;;29.35;24.40;;;18.40;99.90;;;17.72;100.00;100256.44;4137318;28;20026;-78
2022/08/16 01:34:18;;;;;;;28.05;23.10;;;18.40;99.90;;;17.72;100.00;100255.63;4121199;28;20031;-77
2022/08/16 01:36:20;;;;;;;27.85;23.52;;;18.30;99.90;;;17.67;100.00;100256.28;4137019;28;20022;-78
2022/08/16 01:38:28;;;;;;;29.83;23.08;;;18.30;99.90;;;17.56;100.00;100240.94;4137091;28;20036;-77
2022/08/16 01:40:30;;;;;;;28.75;22.05;;;18.30;99.90;;;17.67;100.00;100254.41;4121205;28;20059;-78
2022/08/16 01:42:30;;;;;;;26.77;20.98;;;18.30;99.90;;;17.52;100.00;100232.53;4137184;28;20030;-78
2022/08/16 01:44:32;;;;;;;25.60;21.48;;;18.20;99.90;;;17.66;100.00;100257.28;4120946;28;20033;-77
2022/08/16 01:46:44;;;;;;;26.85;23.25;;;18.20;99.90;;;17.53;100.00;100241.34;4153126;28;20516;-77
2022/08/16 01:48:46;;;;;;;28.48;22.77;;;18.20;99.90;;;17.60;100.00;100258.97;4121084;28;20031;-77
2022/08/16 01:50:50;;;;;;;25.20;22.48;;;18.20;99.90;;;17.58;100.00;100249.53;4137079;28;20034;-77
2022/08/16 01:52:51;;;;;;;25.00;22.23;;;18.20;99.90;;;17.46;100.00;100230.69;4120880;28;20034;-77
2022/08/16 01:54:52;;;;;;;27.23;22.67;;;18.20;99.90;;;17.56;100.00;100248.94;4137232;28;20061;-77
2022/08/16 01:56:54;;;;;;;23.83;19.83;;;18.10;99.90;;;17.47;100.00;100229.66;4137257;28;20023;-77
2022/08/16 01:58:58;;;;;;;24.27;21.80;;;18.10;99.90;;;17.49;100.00;100240.94;4137004;28;20030;-77
2022/08/16 02:00:59;;;;;;;29.05;21.48;;;18.10;99.90;;;17.41;100.00;100235.03;4136931;28;20145;-78
2022/08/16 02:03:01;;;;;;;23.88;18.85;;;18.00;99.90;;;17.35;100.00;100236.69;4120868;28;20499;-77
2022/08/16 02:05:03;;;;;;;22.17;19.98;;;18.00;99.90;;;17.28;100.00;100222.59;4153168;28;20065;-78
2022/08/16 02:07:07;;;;;;;22.33;20.02;;;17.90;99.90;;;17.24;100.00;100226.69;4138109;28;20034;-77
2022/08/16 02:09:11;;;;;;;21.83;19.05;;;17.90;99.90;;;17.20;100.00;100216.69;4137317;28;20098;-77
2022/08/16 02:11:12;;;;;;;20.23;18.13;;;17.90;99.90;;;17.26;100.00;100237.97;4136468;28;20490;-77
2022/08/16 02:13:13;;;;;;;24.13;19.85;;;17.80;99.90;;;17.17;100.00;100217.09;4136635;28;20035;-78
2022/08/16 02:15:15;;;;;;;24.60;22.00;;;17.80;99.90;;;17.15;100.00;100222.63;4136903;28;20399;-78
2022/08/16 02:17:16;;;;;;;28.38;22.55;;;17.80;99.90;;;17.17;100.00;100231.25;4120321;28;20134;-78
2022/08/16 02:19:18;;;;;;;22.05;19.75;;;17.70;99.90;;;17.14;100.00;100231.66;4131059;28;20050;-77
2022/08/16 02:21:20;;;;;;;22.70;20.40;;;17.70;99.90;;;17.10;100.00;100236.59;4127827;28;20061;-77
2022/08/16 02:23:21;;;;;;;24.23;21.45;;;17.70;99.90;;;16.96;100.00;100204.88;4136586;28;20405;-78
2022/08/16 02:25:23;;;;;;;23.30;20.63;;;17.60;99.90;;;16.92;100.00;100206.31;4121162;28;20150;-77
2022/08/16 02:27:24;;;;;;;24.10;21.58;;;17.60;99.90;;;16.89;100.00;100214.72;4120592;28;20033;-77
2022/08/16 02:29:25;;;;;;;25.73;22.55;;;17.60;99.90;;;16.96;100.00;100218.19;4136825;28;20096;-78
2022/08/16 02:31:26;;;;;;;25.00;22.30;;;17.60;99.90;;;16.94;100.00;100221.06;4137648;28;20109;-77
2022/08/16 02:33:28;;;;;;;26.85;22.73;;;17.60;99.90;;;16.91;100.00;100210.00;4136240;28;20033;-78
2022/08/16 02:35:29;;;;;;;24.77;20.65;;;17.60;99.90;;;16.94;100.00;100217.56;4136460;28;20022;-78
2022/08/16 02:37:29;;;;;;;21.58;19.38;;;17.60;99.90;;;16.91;100.00;100220.66;4137532;28;20029;-78
2022/08/16 02:39:30;;;;;;;28.80;23.02;;;17.60;99.90;;;17.03;100.00;100237.63;4136348;28;20077;-77
2022/08/16 02:41:32;;;;;;;27.55;22.55;;;17.60;99.90;;;17.05;100.00;100228.41;4137321;28;20108;-78
2022/08/16 02:43:35;;;;;;;24.42;21.83;;;17.70;99.90;;;17.09;100.00;100223.47;4136808;28;20117;-78
2022/08/16 02:45:36;;;;;;;23.93;21.03;;;17.70;99.90;;;17.15;100.00;100227.97;4136458;28;20037;-78
2022/08/16 02:47:37;;;;;;;24.55;20.33;;;17.70;99.90;;;17.10;100.00;100215.28;4152736;28;20429;-77
2022/08/16 02:49:38;;;;;;;25.00;19.88;;;17.70;99.90;;;17.08;100.00;100201.31;4136097;28;20117;-77
2022/08/16 02:51:41;;;;;;;23.25;20.13;;;17.70;99.90;;;17.23;100.00;100219.75;4137161;28;20049;-77
2022/08/16 02:53:46;;;;;;;26.73;21.70;;;17.80;99.90;;;17.13;100.00;100204.19;4120140;28;20034;-78
2022/08/16 02:55:48;;;;;;;21.83;19.52;;;17.80;99.90;;;17.17;100.00;100209.94;4136101;28;20485;-78
2022/08/16 02:57:49;;;;;;;22.35;19.15;;;17.80;99.90;;;17.26;100.00;100223.84;4135803;28;20031;-77
2022/08/16 02:59:50;;;;;;;26.63;20.23;;;17.80;99.90;;;17.17;100.00;100213.38;4136086;28;20539;-77
2022/08/16 03:01:51;;;;;;;24.75;22.02;;;17.80;99.90;;;17.17;100.00;100209.94;4136207;28;20030;-77
2022/08/16 03:03:54;;;;;;;21.17;18.90;;;17.90;99.90;;;17.21;100.00;100205.78;4137130;28;20037;-77
2022/08/16 03:05:55;;;;;;;25.65;18.58;;;17.90;99.90;;;17.22;100.00;100198.63;4135566;28;20069;-77
2022/08/16 03:07:57;;;;;;;23.42;19.05;;;17.90;99.90;;;17.27;100.00;100209.44;4135764;28;20030;-78
2022/08/16 03:09:58;;;;;;;22.23;19.85;;;17.90;99.90;;;17.12;100.00;100183.91;4136268;28;20105;-78
2022/08/16 03:11:59;;;;;;;28.38;19.85;;;17.90;99.90;;;17.22;100.00;100214.59;4119778;28;20418;-77
2022/08/16 03:14:00;;;;;;;22.73;19.80;;;17.90;99.90;;;17.29;100.00;100223.41;4135827;28;20046;-77
2022/08/16 03:16:01;;;;;;;27.27;20.13;;;17.80;99.90;;;17.19;100.00;100213.19;4135932;28;20022;-78
2022/08/16 03:18:01;;;;;;;25.33;19.52;;;17.80;99.90;;;17.13;100.00;100192.72;4135550;28;20073;-77
2022/08/16 03:20:06;;;;;;;23.00;19.13;;;17.80;99.90;;;17.13;100.00;100200.72;4125332;28;20019;-78
2022/08/16 03:22:07;;;;;;;21.85;19.17;;;17.80;99.90;;;17.21;100.00;100197.78;4120062;28;20023;-78
2022/08/16 03:24:09;;;;;;;19.73;15.98;;;17.80;99.90;;;17.13;100.00;100182.88;4135706;28;20054;-78
2022/08/16 03:26:10;;;;;;;20.80;16.83;;;17.80;99.90;;;17.26;100.00;100206.00;4109984;28;20038;-78
2022/08/16 03:28:11;;;;;;;21.67;16.70;;;17.80;99.90;;;17.24;100.00;100197.38;4135530;28;20026;-77
2022/08/16 03:30:24;;;;;;;19.98;16.95;;;17.80;99.90;;;17.27;100.00;100198.78;4136556;28;20037;-77
2022/08/16 03:32:25;;;;;;;20.40;17.48;;;17.80;99.90;;;17.28;100.00;100197.75;4135857;28;20034;-77
2022/08/16 03:34:26;;;;;;;23.52;18.83;;;17.80;99.90;;;17.27;100.00;100191.63;4136654;28;20390;-78
2022/08/16 03:36:27;;;;;;;19.35;17.20;;;17.90;99.90;;;17.14;100.00;100167.72;4135175;28;20022;-77
2022/08/16 03:38:30;;;;;;;21.73;17.50;;;17.90;99.90;;;17.23;100.00;100169.09;4119383;28;20058;-78
2022/08/16 03:40:33;;;;;;;21.45;16.02;;;17.90;99.90;;;17.15;100.00;100156.00;4135501;28;20018;-78
2022/08/16 03:42:34;;;;;;;24.27;17.73;;;17.90;99.90;;;17.16;100.00;100157.63;4135281;28;20101;-77
2022/08/16 03:44:35;;;;;;;21.83;19.10;;;17.90;99.90;;;17.33;100.00;100185.44;4136499;28;20378;-78
2022/08/16 03:46:36;;;;;;;20.63;17.75;;;17.90;99.90;;;17.20;100.00;100164.19;4119250;28;20105;-77
2022/08/16 03:48:38;;;;;;;24.77;16.80;;;17.90;99.90;;;17.22;100.00;100154.13;4119492;28;20062;-77
2022/08/16 03:50:39;;;;;;;21.60;17.27;;;17.80;99.90;;;17.28;100.00;100160.44;4135048;28;20085;-78
2022/08/16 03:52:41;;;;;;;21.15;16.52;;;17.90;99.90;;;17.31;100.00;100168.03;4118953;28;20026;-77
2022/08/16 03:54:42;;;;;;;20.80;18.60;;;17.90;99.90;;;17.13;100.00;100150.06;4151806;28;20026;-78
2022/08/16 03:56:43;;;;;;;24.05;19.50;;;17.90;99.90;;;17.21;100.00;100157.81;4136555;28;20430;-78
2022/08/16 03:58:44;;;;;;;21.90;17.67;;;17.90;99.90;;;17.31;100.00;100168.03;4136361;28;20023;-78
2022/08/16 04:00:45;;;;;;;21.60;16.33;;;17.90;99.90;;;17.16;100.00;100154.97;4136082;28;20037;-78
2022/08/16 04:02:46;;;;;;;25.30;17.58;;;17.80;99.90;;;17.12;100.00;100129.78;4136316;28;20026;-78
2022/08/16 04:04:48;;;;;;;18.35;13.98;;;17.80;99.90;;;17.15;100.00;100142.66;4135191;28;20117;-78
2022/08/16 04:06:49;;;;;;;26.10;19.85;;;17.80;99.90;;;17.08;100.00;100136.56;4134726;28;20054;-78
2022/08/16 04:08:50;;;;;;;23.77;17.70;;;17.80;99.90;;;17.20;100.00;100158.88;4136383;28;20034;-78
2022/08/16 04:10:53;;;;;;;24.50;17.63;;;17.80;99.90;;;17.14;100.00;100141.06;4135040;28;20038;-77
2022/08/16 04:12:54;;;;;;;22.90;17.00;;;17.80;99.90;;;17.18;100.00;100152.91;4134886;28;20041;-78
2022/08/16 04:14:55;;;;;;;22.33;17.40;;;17.80;99.90;;;17.12;100.00;100137.75;4135030;28;20274;-78
2022/08/16 04:16:56;;;;;;;22.65;17.48;;;17.80;99.90;;;17.23;100.00;100155.78;4136110;28;20030;-78
2022/08/16 04:18:57;;;;;;;20.48;17.17;;;17.80;99.90;;;17.25;100.00;100151.03;4115954;28;20046;-77
2022/08/16 04:20:58;;;;;;;23.85;18.52;;;17.80;99.90;;;17.19;100.00;100143.88;4102622;28;20027;-78
2022/08/16 04:23:00;;;;;;;18.35;15.50;;;17.90;99.90;;;17.24;100.00;100141.38;4120184;28;20089;-78
2022/08/16 04:25:01;;;;;;;20.38;17.65;;;17.90;99.90;;;17.33;100.00;100153.44;4119801;28;20081;-78
2022/08/16 04:27:04;;;;;;;22.17;16.52;;;17.90;99.90;;;17.36;100.00;100158.34;4135265;28;20064;-78
2022/08/16 04:29:05;;;;;;;19.80;17.08;;;17.90;99.90;;;17.39;100.00;100165.09;4136092;28;20034;-77
2022/08/16 04:31:06;;;;;;;17.67;15.18;;;17.90;99.90;;;17.33;100.00;100156.09;4134797;28;20038;-78
2022/08/16 04:33:07;;;;;;;18.60;15.90;;;17.90;99.90;;;17.38;100.00;100156.28;4135496;28;20046;-77
2022/08/16 04:35:15;;;;;;;20.17;15.98;;;18.00;99.90;;;17.41;100.00;100163.06;4121747;28;20394;-78
2022/08/16 04:37:16;;;;;;;20.30;16.60;;;18.00;99.90;;;17.41;100.00;100158.50;4139445;28;20105;-78
2022/08/16 04:39:17;;;;;;;25.88;18.42;;;18.00;99.90;;;17.50;100.00;100167.88;4138210;28;20038;-77
2022/08/16 04:41:17;;;;;;;20.02;17.40;;;18.00;99.90;;;17.48;100.00;100153.97;4139311;28;20077;-77
2022/08/16 04:43:18;;;;;;;20.42;16.48;;;18.00;99.90;;;17.53;100.00;100148.78;4138196;28;20065;-77
2022/08/16 04:45:20;;;;;;;24.15;17.77;;;18.10;99.90;;;17.58;100.00;100148.19;4139315;28;20567;-78
2022/08/16 04:47:28;;;;;;;21.48;16.30;;;18.10;99.90;;;17.58;100.00;100146.34;4138090;28;20026;-78
2022/08/16 04:49:29;;;;;;;23.50;18.15;;;18.10;99.90;;;17.62;100.00;100138.75;4137844;28;20061;-77
2022/08/16 04:51:30;;;;;;;19.70;16.88;;;18.10;99.90;;;17.62;100.00;100149.41;4139139;28;20109;-78
2022/08/16 04:53:32;;;;;;;28.25;20.90;;;18.10;99.90;;;17.55;100.00;100136.13;4139175;28;20081;-77
2022/08/16 04:55:33;;;;;;;23.02;18.58;;;18.20;99.90;;;17.62;100.00;100138.75;4139336;28;20065;-77
2022/08/16 04:57:34;;;;;;;20.23;17.35;;;18.20;99.90;;;17.59;100.00;100141.84;4124997;28;20022;-77
2022/08/16 04:59:35;;;;;;;26.13;21.42;;;18.20;99.90;;;17.66;100.00;100148.75;4121682;28;20038;-77
2022/08/16 05:01:36;;;;;;;22.30;17.50;;;18.20;99.90;;;17.65;100.00;100146.31;4121857;28;20023;-77
2022/08/16 05:03:37;;;;;;;29.77;20.48;;;18.20;99.90;;;17.72;100.00;100152.41;4130887;28;20065;-77
2022/08/16 05:05:41;;;;;;;27.70;20.88;;;18.30;99.90;;;17.69;100.00;100156.31;4138745;28;20058;-77
2022/08/16 05:07:42;;;;;;;21.55;18.58;;;18.30;99.90;;;17.69;100.00;100161.66;4137566;28;20042;-77
2022/08/16 05:09:43;;;;;;;25.90;20.88;;;18.30;99.90;;;17.69;100.00;100158.97;4134467;28;20121;-78
2022/08/16 05:11:44;;;;;;;23.13;19.65;;;18.30;99.90;;;17.69;100.00;100164.31;4122070;28;20026;-78
2022/08/16 05:13:47;;;;;;;29.23;21.70;;;18.30;99.90;;;17.62;100.00;100158.19;4134096;28;20037;-77
2022/08/16 05:15:48;;;;;;;22.58;19.85;;;18.30;99.90;;;17.71;100.00;100163.28;4137668;28;20053;-77
2022/08/16 05:17:49;;;;;;;23.20;18.60;;;18.30;99.90;;;17.72;100.00;100170.25;4138333;28;20101;-77
2022/08/16 05:19:49;;;;;;;25.70;20.33;;;18.30;99.90;;;17.72;100.00;100168.41;4129082;28;20027;-77
2022/08/16 05:21:50;;;;;;;25.30;19.58;;;18.30;99.90;;;17.72;100.00;100164.91;4122392;28;20025;-77
2022/08/16 05:23:52;;;;;;;21.85;19.20;;;18.30;99.90;;;17.68;100.00;100149.34;4122616;28;20038;-77
2022/08/16 05:25:52;;;;;;;25.30;16.52;;;18.30;99.90;;;17.76;100.00;100150.13;4127401;28;20101;-77
2022/08/16 05:27:54;;;;;;;22.63;18.33;;;18.30;99.90;;;17.77;100.00;100141.09;4138634;28;20034;-77
2022/08/16 05:29:55;;;;;;;22.40;20.08;;;18.30;99.90;;;17.83;100.00;100148.22;4138608;28;20030;-77
2022/08/16 05:31:56;;;;;;;19.25;16.98;;;18.40;99.90;;;17.80;100.00;100146.00;4137353;28;20038;-77
2022/08/16 05:34:00;;;;;;;20.00;16.52;;;18.40;99.90;;;17.69;100.00;100126.97;4138562;28;20038;-77
2022/08/16 05:36:02;;;;;;;25.15;17.90;;;18.30;99.90;;;17.80;100.00;100140.66;4137133;28;20034;-77
2022/08/16 05:38:03;;;;;;;26.80;18.10;;;18.40;99.90;;;17.83;100.00;100154.34;4121059;28;20062;-77
2022/08/16 05:40:07;;;;;;;30.42;18.33;;;18.40;99.90;;;17.79;100.00;100149.69;4138504;28;20030;-77
2022/08/16 05:42:08;;;;;;;27.08;18.38;;;18.40;99.90;;;17.77;100.00;100149.09;4137384;28;20026;-77
2022/08/16 05:44:09;;;;;;;24.77;19.15;;;18.40;99.90;;;17.78;100.00;100159.53;4136980;28;20058;-77
2022/08/16 05:46:12;;;;;;;31.20;19.40;;;18.40;99.90;;;17.88;100.00;100164.38;4138540;28;20390;-77
2022/08/16 05:48:12;;;;;;;24.88;17.83;;;18.40;99.90;;;17.85;100.00;100172.81;4137238;28;20078;-77
2022/08/16 05:50:13;;;;;;;27.63;18.65;;;18.50;99.90;;;17.88;100.00;100175.06;4136946;28;20536;-77
2022/08/16 05:52:14;;;;;;;22.13;17.92;;;18.50;99.90;;;17.83;100.00;100177.56;4120923;28;20030;-77
2022/08/16 05:54:16;;;;;;;27.70;18.38;;;18.50;99.90;;;17.91;100.00;100190.63;4119280;28;20058;-77
2022/08/16 05:56:17;;;;;;;19.45;16.08;;;18.50;99.90;;;17.90;100.00;100200.50;4119271;28;20146;-78
2022/08/16 05:58:18;;;;;;;22.45;16.25;;;18.50;99.90;;;17.88;100.00;100196.41;4119774;28;20050;-78
2022/08/16 06:00:19;;;;;;;20.38;16.30;;;18.50;99.90;;;17.95;100.00;100208.66;4093230;28;20070;-78
2022/08/16 06:02:23;;;;;;;21.13;15.80;;;18.50;99.90;;;17.98;100.00;100212.78;4131250;28;20024;-77
2022/08/16 06:04:24;;;;;;;23.73;15.05;;;18.50;99.90;;;17.97;100.00;100209.28;4138161;28;20054;-77
2022/08/16 06:06:25;;;;;;;21.95;17.10;;;18.60;99.90;;;18.02;100.00;100211.28;4120703;28;20402;-77
2022/08/16 06:08:26;;;;;;;22.92;17.42;;;18.60;99.90;;;17.97;100.00;100214.63;4138001;28;20030;-77
2022/08/16 06:10:27;;;;;;;27.50;18.90;;;18.60;99.90;;;17.96;100.00;100236.16;4136973;28;20026;-78
2022/08/16 06:12:29;;;;;;;15.88;10.02;;;18.60;99.90;;;17.85;100.00;100242.19;4153081;28;20026;-78
2022/08/16 06:14:30;;;;;;;11.15;6.85;;;18.50;99.90;;;17.64;100.00;100224.69;4138002;28;20022;-78
2022/08/16 06:16:32;;;;;;;8.57;6.22;;;18.30;99.90;;;17.59;100.00;100241.31;4137876;28;20117;-78
2022/08/16 06:18:33;;;;;;;7.40;5.60;;;18.20;99.90;;;17.42;100.00;100234.00;4120456;28;20043;-78
2022/08/16 06:20:34;;;;;;;6.97;5.60;;;18.10;99.90;;;17.32;100.00;100229.13;4120695;28;20034;-78
2022/08/16 06:22:37;;;;;;;11.68;6.72;;;18.00;99.90;;;17.37;100.00;100237.31;4120564;28;20038;-78
2022/08/16 06:24:38;;;;;;;10.02;5.82;;;18.00;99.90;;;17.46;100.00;100251.22;4120429;28;20090;-78
2022/08/16 06:26:39;;;;;;;6.65;5.80;;;17.90;99.90;;;17.38;100.00;100249.59;4134200;28;20030;-78
2022/08/16 06:28:41;;;;;;;6.32;4.78;;;18.00;99.90;;;17.24;100.00;100225.88;4136567;28;20458;-78
2022/08/16 06:30:42;;;;;;;7.97;3.70;;;17.90;99.90;;;17.38;100.00;100251.47;4137745;28;20529;-77
2022/08/16 06:32:42;;;;;;;5.90;4.07;;;17.90;99.90;;;17.37;100.00;100257.81;4136548;28;20031;-78
2022/08/16 06:34:43;;;;;;;9.02;4.00;;;17.90;99.90;;;17.40;100.00;100260.88;4136431;28;20030;-78
2022/08/16 06:36:44;;;;;;;8.70;4.05;;;17.90;99.90;;;17.33;100.00;100249.41;4136346;28;20520;-78
2022/08/16 06:38:46;;;;;;;7.28;4.05;;;17.90;99.90;;;17.40;100.00;100260.06;4137559;28;20041;-78
2022/08/16 06:40:47;;;;;;;7.40;3.90;;;17.90;99.90;;;17.26;100.00;100255.81;4136252;28;20487;-78
2022/08/16 06:42:48;;;;;;;5.07;3.67;;;17.90;99.90;;;17.14;100.00;100240.47;4136231;28;20034;-79
2022/08/16 06:44:49;;;;;;;7.10;3.47;;;17.90;99.90;;;17.14;100.00;100237.00;4137526;28;20505;-79
2022/08/16 06:46:50;;;;;;;5.10;3.30;;;17.90;99.90;;;17.13;100.00;100246.84;4136323;28;20042;-79
2022/08/16 06:48:52;;;;;;;3.92;3.33;;;17.80;99.90;;;17.15;100.00;100259.94;4136220;28;20448;-79
2022/08/16 06:50:53;;;;;;;6.30;3.53;;;17.80;99.90;;;17.27;100.00;100257.44;4129742;28;20038;-79
2022/08/16 06:52:54;;;;;;;6.25;3.90;;;17.80;99.90;;;17.27;100.00;100244.09;4136436;28;20033;-78
2022/08/16 06:54:55;;;;;;;10.50;4.13;;;17.80;99.90;;;17.20;100.00;100230.00;4137384;28;20401;-78
2022/08/16 06:56:56;;;;;;;8.60;4.00;;;17.80;99.90;;;17.21;100.00;100227.13;4135405;28;20422;-78
2022/08/16 06:58:57;;;;;;;5.70;3.45;;;17.90;99.90;;;17.28;100.00;100233.25;4136108;28;20065;-78
2022/08/16 07:01:01;;;;;;;6.40;3.97;;;18.00;99.90;;;17.31;100.00;100224.81;4137067;28;20034;-78
2022/08/16 07:03:01;;;;;;;7.03;3.70;;;18.00;99.90;;;17.38;100.00;100236.25;4119907;28;20039;-77
2022/08/16 07:05:05;;;;;;;4.78;3.08;;;18.00;99.90;;;17.48;100.00;100241.13;4136912;28;20034;-76
2022/08/16 07:07:06;;;;;;;5.32;3.08;;;18.00;99.90;;;17.38;100.00;100222.13;4135877;28;20030;-76
2022/08/16 07:09:09;;;;;;;7.10;3.38;;;18.10;99.90;;;17.50;100.00;100237.22;4135854;28;20521;-77
2022/08/16 07:11:10;;;;;;;7.25;3.70;;;18.10;99.90;;;17.59;100.00;100251.97;4137069;28;20505;-77
2022/08/16 07:13:11;;;;;;;8.80;3.92;;;18.20;99.90;;;17.77;100.00;100274.47;4136940;28;20027;-76
2022/08/16 07:15:12;;;;;;;8.18;3.30;;;18.30;99.90;;;17.63;100.00;100247.88;4136917;28;20038;-78
2022/08/16 07:17:12;;;;;;;10.13;3.50;;;18.30;99.90;;;17.69;100.00;100263.03;4135705;28;20022;-75
2022/08/16 07:19:15;;;;;;;6.47;3.00;;;18.30;99.90;;;17.67;100.00;100250.94;4131893;28;20047;-76
2022/08/16 07:21:16;;;;;;;9.65;3.15;;;18.30;99.90;;;17.81;100.00;100262.34;4111258;28;20023;-78
2022/08/16 07:23:17;;;;;;;5.57;3.20;;;18.40;99.90;;;17.84;100.00;100248.56;4135774;28;20564;-77
2022/08/16 07:25:18;;;;;;;9.32;3.50;;;18.40;99.90;;;17.89;100.00;100243.41;4119248;28;20027;-77
2022/08/16 07:27:19;;;;;;;8.73;3.40;;;18.50;99.90;;;17.98;100.00;100239.47;4136918;28;20037;-77
2022/08/16 07:29:20;;;;;;;8.13;3.47;;;18.50;99.90;;;18.03;100.00;100236.94;4136795;28;20065;-78
2022/08/16 07:31:21;;;;;;;9.57;3.53;;;18.60;99.90;;;18.06;100.00;100226.66;4119397;28;20034;-77
2022/08/16 07:33:22;;;;;;;7.05;3.03;;;18.70;99.90;;;18.11;100.00;100217.97;4135322;28;20060;-77
2022/08/16 07:35:24;;;;;;;7.38;2.60;;;18.70;99.90;;;18.12;100.00;100203.63;4151488;28;20057;-82
2022/08/16 07:37:25;;;;;;;8.63;2.55;;;18.70;99.90;;;18.18;100.00;100234.78;4136651;28;20512;-83
2022/08/16 07:39:26;;;;;;;8.18;3.03;;;18.80;99.90;;;18.19;100.00;100252.41;4136609;28;20026;-83
2022/08/16 07:41:27;;;;;;;7.80;3.88;;;18.80;99.90;;;18.02;100.00;100235.31;4128444;28;20049;-85
2022/08/16 07:43:28;;;;;;;7.32;3.92;;;18.80;99.90;;;18.20;100.00;100260.22;4135361;28;20433;-84
2022/08/16 07:45:29;;;;;;;6.72;3.05;;;18.90;99.90;;;18.28;100.00;100259.13;4119262;28;20430;-84
2022/08/16 07:47:30;;;;;;;9.43;3.85;;;19.00;99.90;;;18.59;100.00;100282.31;4119555;28;20054;-83
2022/08/16 07:49:31;;;;;;;6.35;3.38;;;19.10;99.90;;;18.76;100.00;100276.19;4135298;28;20121;-78
2022/08/16 07:51:35;;;;;;;6.28;2.60;;;19.30;99.90;;;19.07;100.00;100269.09;4136300;28;20073;-78
2022/08/16 07:53:37;;;;;;;;;;;19.50;99.90;;;19.22;100.00;100270.38;4136799;28;20390;-78
2022/08/16 07:55:39;;;;;;;5.03;2.47;;;19.70;99.90;;;19.54;100.00;100275.56;4135216;28;20028;-77
2022/08/16 07:57:41;;;;;;;6.78;2.25;;;19.90;99.90;;;19.69;100.00;100255.38;4135312;28;20022;-78
2022/08/16 07:59:43;;;;;;;4.53;2.20;;;20.20;99.90;;;20.13;100.00;100274.75;4136406;28;20031;-77
2022/08/16 08:01:44;;;;;;;4.35;1.80;;;20.40;99.90;;;20.21;100.00;100263.69;4135062;28;20402;-77
2022/08/16 08:03:45;;;;;;;5.85;1.85;;;20.60;99.90;;;20.36;100.00;100256.06;4136412;28;20033;-77
2022/08/16 08:05:46;;;;;;;6.32;2.00;;;20.80;99.90;;;20.61;100.00;100263.88;4134935;28;20026;-78
2022/08/16 08:07:47;;;;;;;3.22;1.67;;;21.00;99.90;;;20.72;100.00;100276.47;4134455;28;20025;-77
2022/08/16 08:09:48;;;;;;;2.92;1.52;;;21.00;99.90;;;20.71;100.00;100264.09;4119123;28;20026;-76
2022/08/16 08:11:49;;;;;;;4.63;2.17;;;21.20;99.90;;;20.74;100.00;100250.22;4119142;28;20406;-77
2022/08/16 08:13:52;;;;;;;5.07;1.15;;;21.20;99.90;;;20.74;100.00;100263.63;4113663;28;20035;-77
2022/08/16 08:15:53;;;;;;;2.78;1.20;;;21.20;99.90;;;20.77;100.00;100266.66;4133850;28;20034;-78